createdAt,value
2023-05-25T00:01:26.325Z,6.22
2023-05-25T00:03:53.550Z,7.53
2023-05-25T00:06:26.214Z,6.18
2023-05-25T00:08:52.493Z,5.95
2023-05-25T00:11:20.487Z,7.20
2023-05-25T00:13:46.770Z,7.40
2023-05-25T00:16:13.222Z,6.72
2023-05-25T00:18:41.846Z,6.25
2023-05-25T00:21:17.597Z,7.72
2023-05-25T00:23:53.832Z,8.75
2023-05-25T00:26:30.056Z,6.28
2023-05-25T00:28:56.792Z,6.90
2023-05-25T00:31:24.863Z,6.88
2023-05-25T00:33:51.187Z,5.32
2023-05-25T00:36:18.274Z,7.43
2023-05-25T00:38:44.617Z,8.32
2023-05-25T00:41:14.704Z,6.95
2023-05-25T00:43:43.494Z,5.35
2023-05-25T00:46:09.865Z,6.15
2023-05-25T00:51:06.546Z,6.00
2023-05-25T00:53:35.456Z,6.47
2023-05-25T00:56:01.700Z,5.85
2023-05-25T00:58:28.011Z,7.22
2023-05-25T01:00:54.298Z,5.90
2023-05-25T01:03:22.257Z,4.68
2023-05-25T01:05:48.636Z,7.03
2023-05-25T01:08:14.872Z,5.60
2023-05-25T01:10:45.607Z,6.07
2023-05-25T01:13:14.816Z,6.15
2023-05-25T01:15:46.331Z,7.53
2023-05-25T01:18:13.875Z,6.32
2023-05-25T01:20:42.171Z,6.18
2023-05-25T01:23:08.504Z,6.80
2023-05-25T01:25:34.763Z,7.55
2023-05-25T01:28:06.540Z,6.57
2023-05-25T01:30:32.868Z,7.05
2023-05-25T01:33:02.221Z,7.22
2023-05-25T01:35:35.392Z,6.45
2023-05-25T01:38:01.712Z,5.43
2023-05-25T01:40:27.945Z,6.13
2023-05-25T01:42:57.703Z,7.25
2023-05-25T01:45:30.356Z,7.43
2023-05-25T01:48:01.363Z,5.55
2023-05-25T01:50:27.727Z,7.30
2023-05-25T01:52:59.130Z,5.50
2023-05-25T01:55:26.495Z,5.47
2023-05-25T01:57:56.174Z,5.90
2023-05-25T02:00:22.440Z,5.60
2023-05-25T02:02:48.791Z,7.78
2023-05-25T02:05:15.513Z,6.40
2023-05-25T02:07:41.805Z,4.80
2023-05-25T02:10:10.067Z,6.75
2023-05-25T02:12:36.406Z,5.40
2023-05-25T02:15:03.644Z,5.57
2023-05-25T02:17:30.936Z,5.30
2023-05-25T02:19:57.280Z,6.07
2023-05-25T02:22:23.569Z,5.68
2023-05-25T02:24:49.873Z,9.80
2023-05-25T02:27:16.155Z,5.90
2023-05-25T02:29:42.478Z,4.63
2023-05-25T02:32:09.051Z,7.40
2023-05-25T02:34:35.310Z,6.22
2023-05-25T02:37:05.580Z,7.53
2023-05-25T02:39:31.844Z,7.35
2023-05-25T02:42:01.688Z,7.13
2023-05-25T02:44:28.026Z,5.70
2023-05-25T02:46:56.497Z,6.38
2023-05-25T02:49:22.936Z,5.90
2023-05-25T02:51:50.788Z,7.90
2023-05-25T02:54:21.438Z,5.22
2023-05-25T02:56:50.883Z,9.83
2023-05-25T02:59:17.147Z,5.65
2023-05-25T03:01:43.393Z,5.78
2023-05-25T03:04:09.759Z,5.63
2023-05-25T03:06:37.509Z,5.70
2023-05-25T03:09:03.781Z,6.13
2023-05-25T03:11:34.587Z,5.50
2023-05-25T03:14:03.645Z,6.10
2023-05-25T03:16:29.979Z,6.45
2023-05-25T03:18:56.241Z,6.63
2023-05-25T03:21:24.112Z,6.38
2023-05-25T03:23:50.463Z,6.10
2023-05-25T03:26:16.790Z,7.00
2023-05-25T03:28:46.895Z,6.03
2023-05-25T03:31:15.379Z,6.75
2023-05-25T03:33:41.631Z,5.85
2023-05-25T03:36:07.917Z,5.90
2023-05-25T03:38:34.139Z,5.13
2023-05-25T03:41:00.398Z,7.25
2023-05-25T03:43:29.942Z,5.47
2023-05-25T03:45:59.237Z,6.35
2023-05-25T03:48:32.907Z,6.35
2023-05-25T03:50:59.207Z,6.38
2023-05-25T03:53:29.851Z,6.15
2023-05-25T03:55:56.122Z,6.10
2023-05-25T03:58:23.099Z,5.88
2023-05-25T04:00:49.355Z,6.60
2023-05-25T04:03:15.762Z,6.90
2023-05-25T04:05:42.312Z,6.78
2023-05-25T04:08:08.659Z,6.50
2023-05-25T04:10:34.991Z,7.15
2023-05-25T04:13:09.054Z,5.57
2023-05-25T04:15:35.284Z,6.80
2023-05-25T04:18:02.980Z,6.53
2023-05-25T04:20:34.456Z,6.40
2023-05-25T04:23:06.337Z,7.85
2023-05-25T04:25:32.705Z,8.20
2023-05-25T04:28:02.372Z,9.27
2023-05-25T04:30:31.163Z,6.25
2023-05-25T04:32:57.422Z,6.32
2023-05-25T04:35:23.774Z,6.63
2023-05-25T04:37:53.643Z,8.05
2023-05-25T04:40:20.222Z,6.78
2023-05-25T04:42:46.501Z,7.28
2023-05-25T04:45:12.735Z,7.63
2023-05-25T04:47:45.939Z,7.57
2023-05-25T04:50:12.744Z,7.00
2023-05-25T04:52:39.006Z,7.05
2023-05-25T04:55:08.034Z,6.35
2023-05-25T04:57:37.657Z,7.07
2023-05-25T05:00:05.615Z,7.05
2023-05-25T05:02:35.624Z,8.43
2023-05-25T05:05:02.813Z,7.78
2023-05-25T05:07:29.056Z,6.38
2023-05-25T05:09:57.791Z,8.32
2023-05-25T05:12:24.091Z,7.22
2023-05-25T05:14:50.336Z,6.53
2023-05-25T05:17:16.644Z,6.63
2023-05-25T05:19:43.188Z,6.53
2023-05-25T05:22:11.979Z,5.93
2023-05-25T05:24:43.876Z,6.75
2023-05-25T05:27:16.507Z,7.00
2023-05-25T05:29:42.889Z,8.82
2023-05-25T05:32:09.155Z,8.63
2023-05-25T05:34:35.405Z,7.28
2023-05-25T05:37:01.701Z,9.13
2023-05-25T05:39:28.133Z,7.93
2023-05-25T05:41:58.135Z,8.02
2023-05-25T05:44:29.240Z,8.05
2023-05-25T05:46:55.916Z,6.78
2023-05-25T05:49:26.497Z,6.63
2023-05-25T05:51:52.754Z,9.45
2023-05-25T05:54:18.992Z,10.02
2023-05-25T05:56:45.226Z,9.10
2023-05-25T05:59:17.475Z,9.50
2023-05-25T06:01:43.917Z,10.10
2023-05-25T06:04:15.008Z,7.72
2023-05-25T06:06:41.478Z,9.98
2023-05-25T06:09:08.057Z,9.13
2023-05-25T06:11:34.380Z,9.48
2023-05-25T06:14:00.650Z,10.10
2023-05-25T06:16:27.002Z,8.23
2023-05-25T06:18:53.364Z,7.85
2023-05-25T06:21:19.599Z,8.70
2023-05-25T06:23:49.893Z,8.57
2023-05-25T06:26:16.239Z,7.82
2023-05-25T06:28:42.541Z,10.45
2023-05-25T06:31:08.799Z,8.88
2023-05-25T06:33:35.062Z,9.95
2023-05-25T06:36:01.381Z,9.88
2023-05-25T06:38:27.636Z,11.27
2023-05-25T06:40:57.051Z,7.95
2023-05-25T06:43:23.858Z,9.15
2023-05-25T06:45:53.239Z,8.85
2023-05-25T06:48:21.293Z,8.00
2023-05-25T06:50:47.618Z,8.57
2023-05-25T06:53:16.692Z,8.75
2023-05-25T06:55:46.346Z,8.90
2023-05-25T06:58:12.772Z,9.70
2023-05-25T07:00:39.134Z,9.40
2023-05-25T07:03:15.367Z,8.15
2023-05-25T07:05:41.784Z,12.98
2023-05-25T07:08:10.499Z,9.55
2023-05-25T07:10:38.901Z,7.88
2023-05-25T07:13:05.159Z,7.57
2023-05-25T07:15:31.461Z,8.60
2023-05-25T07:18:03.858Z,8.52
2023-05-25T07:20:30.180Z,10.85
2023-05-25T07:22:56.830Z,8.73
2023-05-25T07:25:23.168Z,9.68
2023-05-25T07:27:54.972Z,9.15
2023-05-25T07:30:22.440Z,9.70
2023-05-25T07:32:48.726Z,7.88
2023-05-25T07:35:15.070Z,7.28
2023-05-25T07:37:46.410Z,8.82
2023-05-25T07:40:13.012Z,8.80
2023-05-25T07:42:39.973Z,7.38
2023-05-25T07:45:06.335Z,7.60
2023-05-25T07:47:32.950Z,7.93
2023-05-25T07:49:59.781Z,7.75
2023-05-25T07:52:27.620Z,10.02
2023-05-25T07:54:55.349Z,10.50
2023-05-25T07:57:21.702Z,9.10
2023-05-25T07:59:48.250Z,9.20
2023-05-25T08:02:16.946Z,7.95
2023-05-25T08:04:43.408Z,8.68
2023-05-25T08:07:09.721Z,9.43
2023-05-25T08:09:43.017Z,7.90
2023-05-25T08:12:30.534Z,10.13
2023-05-25T08:14:55.563Z,8.35
2023-05-25T08:17:21.868Z,10.02
2023-05-25T08:19:48.138Z,9.23
2023-05-25T08:22:20.063Z,9.45
2023-05-25T08:24:46.466Z,11.45
2023-05-25T08:27:13.270Z,8.27
2023-05-25T08:29:46.397Z,10.88
2023-05-25T08:32:15.918Z,10.10
2023-05-25T08:34:42.169Z,10.48
2023-05-25T08:37:08.829Z,8.98
2023-05-25T08:39:36.840Z,9.38
2023-05-25T08:42:03.409Z,10.68
2023-05-25T08:44:29.636Z,9.57
2023-05-25T08:46:55.873Z,9.13
2023-05-25T08:49:22.240Z,9.55
2023-05-25T08:51:49.378Z,10.32
2023-05-25T08:54:15.652Z,7.43
2023-05-25T08:56:41.994Z,9.75
2023-05-25T08:59:08.263Z,11.27
2023-05-25T09:01:37.936Z,8.23
2023-05-25T09:04:05.132Z,11.25
2023-05-25T09:06:34.716Z,9.73
2023-05-25T09:09:04.308Z,8.88
2023-05-25T09:11:39.338Z,9.25
2023-05-25T09:14:07.037Z,10.25
2023-05-25T09:16:36.247Z,238.13
2023-05-25T09:19:07.380Z,411.38
2023-05-25T09:21:36.323Z,365.92
2023-05-25T09:24:02.582Z,338.58
2023-05-25T09:26:32.743Z,254.55
2023-05-25T09:28:59.030Z,258.27
2023-05-25T09:31:25.368Z,250.45
2023-05-25T09:33:51.818Z,228.93
2023-05-25T09:36:19.188Z,231.25
2023-05-25T09:38:45.812Z,219.07
2023-05-25T09:41:14.257Z,367.17
2023-05-25T09:43:51.652Z,728.83
2023-05-25T09:46:28.770Z,448.08
2023-05-25T09:48:59.529Z,468.23
2023-05-25T09:51:28.918Z,429.13
2023-05-25T09:54:00.966Z,387.45
2023-05-25T09:56:33.607Z,404.90
2023-05-25T09:59:02.596Z,380.23
2023-05-25T10:01:28.975Z,357.67
2023-05-25T10:04:04.288Z,359.40
2023-05-25T10:06:35.388Z,697.03
2023-05-25T10:09:01.641Z,612.30
2023-05-25T10:11:29.938Z,520.97
2023-05-25T10:13:56.269Z,473.60
2023-05-25T10:16:22.581Z,463.70
2023-05-25T10:21:19.256Z,462.65
2023-05-25T10:23:47.732Z,455.95
2023-05-25T10:26:14.039Z,500.15
2023-05-25T10:28:48.657Z,525.58
2023-05-25T10:31:21.561Z,480.73
2023-05-25T10:33:52.055Z,575.90
2023-05-25T10:36:19.607Z,780.92
2023-05-25T10:38:48.906Z,795.40
2023-05-25T10:41:16.560Z,789.25
2023-05-25T10:43:48.926Z,898.83
2023-05-25T10:46:16.472Z,872.10
2023-05-25T10:48:47.398Z,800.50
2023-05-25T10:51:13.691Z,751.72
2023-05-25T10:53:41.729Z,724.42
2023-05-25T10:56:09.734Z,694.00
2023-05-25T10:58:36.260Z,691.95
2023-05-25T11:01:02.712Z,662.60
2023-05-25T11:03:31.374Z,649.15
2023-05-25T11:06:04.801Z,638.25
2023-05-25T11:08:31.181Z,638.67
2023-05-25T11:10:57.610Z,612.25
2023-05-25T11:13:25.932Z,604.45
2023-05-25T11:15:52.233Z,591.70
2023-05-25T11:18:18.515Z,588.17
2023-05-25T11:20:47.901Z,567.70
2023-05-25T11:23:14.525Z,559.05
2023-05-25T11:25:40.834Z,548.03
2023-05-25T11:28:10.047Z,531.13
2023-05-25T11:30:38.785Z,526.08
2023-05-25T11:33:11.371Z,522.28
2023-05-25T11:35:45.065Z,457.67
2023-05-25T11:38:16.304Z,385.02
2023-05-25T11:40:45.360Z,322.02
2023-05-25T11:43:14.561Z,192.45
2023-05-25T11:45:40.855Z,222.70
2023-05-25T11:48:08.469Z,219.18
2023-05-25T11:50:39.969Z,216.73
2023-05-25T11:53:06.621Z,390.45
2023-05-25T11:55:32.906Z,694.67
2023-05-25T11:57:59.137Z,468.88
2023-05-25T12:00:25.688Z,421.25
2023-05-25T12:02:51.981Z,396.92
2023-05-25T12:05:19.914Z,386.52
2023-05-25T12:07:46.676Z,374.52
2023-05-25T12:10:13.039Z,359.65
2023-05-25T12:12:44.603Z,467.13
2023-05-25T12:15:10.900Z,405.45
2023-05-25T12:17:37.230Z,385.33
2023-05-25T12:20:06.463Z,369.73
2023-05-25T12:22:38.454Z,368.08
2023-05-25T12:25:04.749Z,451.05
2023-05-25T12:27:31.048Z,556.05
2023-05-25T12:30:00.749Z,561.50
2023-05-25T12:32:27.043Z,468.73
2023-05-25T12:34:53.318Z,442.15
2023-05-25T12:37:20.154Z,432.98
2023-05-25T12:39:48.347Z,414.92
2023-05-25T12:42:14.605Z,413.05
2023-05-25T12:44:41.585Z,401.33
2023-05-25T12:47:08.949Z,396.55
2023-05-25T12:49:35.458Z,392.23
2023-05-25T12:52:01.764Z,394.00
2023-05-25T12:54:28.171Z,381.98
2023-05-25T12:56:54.793Z,375.73
2023-05-25T12:59:21.045Z,708.25
2023-05-25T13:01:47.499Z,483.83
2023-05-25T13:04:13.914Z,459.05
2023-05-25T13:06:40.310Z,544.22
2023-05-25T13:09:06.569Z,468.35
2023-05-25T13:11:32.855Z,443.42
2023-05-25T13:14:04.544Z,429.48
2023-05-25T13:16:32.353Z,433.00
2023-05-25T13:18:58.708Z,427.73
2023-05-25T13:21:25.027Z,421.70
2023-05-25T13:23:51.899Z,415.33
2023-05-25T13:26:18.154Z,402.02
2023-05-25T13:28:50.957Z,402.48
2023-05-25T13:31:17.310Z,398.05
2023-05-25T13:33:43.572Z,397.83
2023-05-25T13:36:09.829Z,384.48
2023-05-25T13:38:38.917Z,378.95
2023-05-25T13:41:09.853Z,376.92
2023-05-25T13:43:36.256Z,353.92
2023-05-25T13:46:08.749Z,312.67
2023-05-25T13:48:38.760Z,333.98
2023-05-25T13:51:05.247Z,285.50
2023-05-25T13:53:32.890Z,256.63
2023-05-25T13:55:59.178Z,247.52
2023-05-25T13:58:28.382Z,233.73
2023-05-25T14:00:54.856Z,223.80
2023-05-25T14:03:21.220Z,208.68
2023-05-25T14:05:50.355Z,204.93
2023-05-25T14:08:18.573Z,192.40
2023-05-25T14:10:44.962Z,191.20
2023-05-25T14:13:13.528Z,187.77
2023-05-25T14:15:42.140Z,182.38
2023-05-25T14:18:08.646Z,178.93
2023-05-25T14:20:39.158Z,180.07
2023-05-25T14:23:05.827Z,165.50
2023-05-25T14:25:33.569Z,167.77
2023-05-25T14:28:05.435Z,151.52
2023-05-25T14:30:32.345Z,153.35
2023-05-25T14:32:58.769Z,145.32
2023-05-25T14:35:27.122Z,139.80
2023-05-25T14:37:59.210Z,158.82
2023-05-25T14:40:25.518Z,144.13
2023-05-25T14:42:51.875Z,139.95
2023-05-25T14:45:18.133Z,135.43
2023-05-25T14:47:49.720Z,130.68
2023-05-25T14:50:17.269Z,119.90
2023-05-25T14:52:43.507Z,124.30
2023-05-25T14:55:09.819Z,116.85
2023-05-25T14:57:43.336Z,109.53
2023-05-25T15:00:11.367Z,112.25
2023-05-25T15:02:37.913Z,108.72
2023-05-25T15:05:04.322Z,108.40
2023-05-25T15:07:30.702Z,107.00
2023-05-25T15:10:03.553Z,97.45
2023-05-25T15:12:33.490Z,88.78
2023-05-25T15:14:59.897Z,82.97
2023-05-25T15:17:26.237Z,78.80
2023-05-25T15:19:52.682Z,73.65
2023-05-25T15:22:19.109Z,71.72
2023-05-25T15:24:45.688Z,62.55
2023-05-25T15:27:11.953Z,64.30
2023-05-25T15:29:45.776Z,57.83
2023-05-25T15:32:18.161Z,53.30
2023-05-25T15:34:45.208Z,52.30
2023-05-25T15:37:21.393Z,51.08
2023-05-25T15:39:47.651Z,115.70
2023-05-25T15:42:14.890Z,321.95
2023-05-25T15:44:41.201Z,198.52
2023-05-25T15:47:07.569Z,166.55
2023-05-25T15:49:33.862Z,143.10
2023-05-25T15:52:00.165Z,127.57
2023-05-25T15:54:33.810Z,109.72
2023-05-25T15:57:00.219Z,103.05
2023-05-25T15:59:27.180Z,96.25
2023-05-25T16:01:53.509Z,92.38
2023-05-25T16:04:25.793Z,83.15
2023-05-25T16:06:52.217Z,78.78
2023-05-25T16:09:18.881Z,74.07
2023-05-25T16:11:45.243Z,79.13
2023-05-25T16:14:11.705Z,254.95
2023-05-25T16:16:38.232Z,165.40
2023-05-25T16:19:04.583Z,151.55
2023-05-25T16:21:36.907Z,148.80
2023-05-25T16:24:03.347Z,137.50
2023-05-25T16:26:30.852Z,136.57
2023-05-25T16:29:01.010Z,129.38
2023-05-25T16:31:27.277Z,130.77
2023-05-25T16:33:53.598Z,130.00
2023-05-25T16:36:26.791Z,123.28
2023-05-25T16:38:53.187Z,122.40
2023-05-25T16:41:24.386Z,118.80
2023-05-25T16:43:53.070Z,122.82
2023-05-25T16:46:19.374Z,118.15
2023-05-25T16:48:45.621Z,110.85
2023-05-25T16:51:12.271Z,112.63
2023-05-25T16:53:38.543Z,109.05
2023-05-25T16:56:04.836Z,106.47
2023-05-25T16:58:31.096Z,104.63
2023-05-25T17:00:59.751Z,106.13
2023-05-25T17:03:27.719Z,351.80
2023-05-25T17:05:56.194Z,454.45
2023-05-25T17:08:25.596Z,398.93
2023-05-25T17:10:51.899Z,336.63
2023-05-25T17:13:18.155Z,321.83
2023-05-25T17:15:44.723Z,290.48
2023-05-25T17:18:11.663Z,285.35
2023-05-25T17:20:37.953Z,277.33
2023-05-25T17:23:07.521Z,268.10
2023-05-25T17:25:35.133Z,263.45
2023-05-25T17:28:05.431Z,253.43
2023-05-25T17:30:34.311Z,245.32
2023-05-25T17:33:05.999Z,247.13
2023-05-25T17:35:39.291Z,240.32
2023-05-25T17:38:07.493Z,233.00
2023-05-25T17:40:33.749Z,228.43
2023-05-25T17:43:00.164Z,464.45
2023-05-25T17:45:30.638Z,589.47
2023-05-25T17:47:57.000Z,407.67
2023-05-25T17:50:27.576Z,385.42
2023-05-25T17:52:53.821Z,406.70
2023-05-25T17:55:22.576Z,387.55
2023-05-25T17:57:50.092Z,386.15
2023-05-25T18:00:16.372Z,372.90
2023-05-25T18:05:13.204Z,349.75
2023-05-25T18:07:39.507Z,335.55
2023-05-25T18:10:07.592Z,326.55
2023-05-25T18:12:33.860Z,453.98
2023-05-25T18:15:00.113Z,555.40
2023-05-25T18:17:26.903Z,497.55
2023-05-25T18:19:53.346Z,464.70
2023-05-25T18:22:23.105Z,458.83
2023-05-25T18:24:49.364Z,442.38
2023-05-25T18:27:19.294Z,447.27
2023-05-25T18:29:45.689Z,438.55
2023-05-25T18:32:11.933Z,430.83
2023-05-25T18:34:38.440Z,427.90
2023-05-25T18:37:09.248Z,415.85
2023-05-25T18:39:36.793Z,415.38
2023-05-25T18:42:05.452Z,400.27
2023-05-25T18:44:31.696Z,633.03
2023-05-25T18:46:59.530Z,611.08
2023-05-25T18:49:25.809Z,539.08
2023-05-25T18:51:54.076Z,515.17
2023-05-25T18:54:20.350Z,496.20
2023-05-25T18:56:47.302Z,492.65
2023-05-25T18:59:20.691Z,479.33
2023-05-25T19:01:53.698Z,476.90
2023-05-25T19:04:20.358Z,474.75
2023-05-25T19:06:52.187Z,473.30
2023-05-25T19:09:19.136Z,653.75
2023-05-25T19:11:45.390Z,645.90
2023-05-25T19:14:12.212Z,575.67
2023-05-25T19:16:42.452Z,559.17
2023-05-25T19:19:13.900Z,540.33
2023-05-25T19:21:50.198Z,529.88
2023-05-25T19:24:22.452Z,516.40
2023-05-25T19:26:52.986Z,515.75
2023-05-25T19:29:19.361Z,512.10
2023-05-25T19:31:45.687Z,663.97
2023-05-25T19:34:12.878Z,636.17
2023-05-25T19:36:40.450Z,585.88
2023-05-25T19:39:06.688Z,575.78
2023-05-25T19:41:36.647Z,549.00
2023-05-25T19:44:06.784Z,527.20
2023-05-25T19:46:33.276Z,537.50
2023-05-25T19:49:01.086Z,591.72
2023-05-25T19:51:28.768Z,644.30
2023-05-25T19:53:55.081Z,607.80
2023-05-25T19:56:24.192Z,585.92
2023-05-25T19:58:57.257Z,574.97
2023-05-25T20:01:23.529Z,563.05
2023-05-25T20:03:49.931Z,554.80
2023-05-25T20:06:16.267Z,656.45
2023-05-25T20:08:43.473Z,725.72
2023-05-25T20:11:11.356Z,667.03
2023-05-25T20:13:46.592Z,620.83
2023-05-25T20:16:13.019Z,596.47
2023-05-25T20:18:39.301Z,588.05
2023-05-25T20:21:10.557Z,582.25
2023-05-25T20:23:36.808Z,566.20
2023-05-25T20:26:03.341Z,565.03
2023-05-25T20:28:29.712Z,559.45
2023-05-25T20:31:01.798Z,698.17
2023-05-25T20:33:35.210Z,694.00
2023-05-25T20:36:01.463Z,640.42
2023-05-25T20:38:32.053Z,635.13
2023-05-25T20:41:01.547Z,625.57
2023-05-25T20:43:29.016Z,615.45
2023-05-25T20:45:55.384Z,655.85
2023-05-25T20:48:21.646Z,677.60
2023-05-25T20:50:50.559Z,730.67
2023-05-25T20:53:23.894Z,677.25
2023-05-25T20:55:50.138Z,660.00
2023-05-25T20:58:16.379Z,651.08
2023-05-25T21:00:42.699Z,635.10
2023-05-25T21:03:09.140Z,629.47
2023-05-25T21:05:35.488Z,762.90
2023-05-25T21:08:01.848Z,782.30
2023-05-25T21:10:28.113Z,709.65
2023-05-25T21:13:04.366Z,682.22
2023-05-25T21:15:30.602Z,680.85
2023-05-25T21:17:57.913Z,673.35
2023-05-25T21:20:29.451Z,676.33
2023-05-25T21:22:55.998Z,661.42
2023-05-25T21:25:22.427Z,642.30
2023-05-25T21:27:48.754Z,640.20
2023-05-25T21:30:15.824Z,639.80
2023-05-25T21:32:42.149Z,634.75
2023-05-25T21:35:08.449Z,613.55
2023-05-25T21:37:34.713Z,612.80
2023-05-25T21:40:00.989Z,608.88
2023-05-25T21:42:27.556Z,610.65
2023-05-25T21:44:56.289Z,600.67
2023-05-25T21:47:25.508Z,726.85
2023-05-25T21:49:52.038Z,858.50
2023-05-25T21:52:24.094Z,767.03
2023-05-25T21:54:56.978Z,721.75
2023-05-25T21:57:23.212Z,712.03
2023-05-25T21:59:51.451Z,691.83
2023-05-25T22:02:17.773Z,694.58
2023-05-25T22:04:44.075Z,686.60
2023-05-25T22:07:10.364Z,678.17
2023-05-25T22:09:36.624Z,673.75
2023-05-25T22:12:08.804Z,668.75
2023-05-25T22:14:43.154Z,660.67
2023-05-25T22:17:09.466Z,667.13
2023-05-25T22:19:35.749Z,654.10
2023-05-25T22:22:02.878Z,654.35
2023-05-25T22:24:31.222Z,650.03
2023-05-25T22:26:59.031Z,643.50
2023-05-25T22:29:27.858Z,638.42
2023-05-25T22:31:54.191Z,627.25
2023-05-25T22:34:20.510Z,636.20
2023-05-25T22:36:46.817Z,623.90
2023-05-25T22:39:16.668Z,622.95
2023-05-25T22:41:47.947Z,615.22
2023-05-25T22:44:14.643Z,609.03
2023-05-25T22:46:41.324Z,610.50
2023-05-25T22:49:09.659Z,599.38
2023-05-25T22:51:35.915Z,594.90
2023-05-25T22:54:02.415Z,589.80
2023-05-25T22:56:30.573Z,587.85
2023-05-25T22:59:00.216Z,581.45
2023-05-25T23:01:26.513Z,584.40
2023-05-25T23:03:52.997Z,574.38
2023-05-25T23:06:19.330Z,558.78
2023-05-25T23:08:50.259Z,567.80
2023-05-25T23:11:18.554Z,561.40
2023-05-25T23:13:44.877Z,555.05
2023-05-25T23:16:14.370Z,553.63
2023-05-25T23:18:42.854Z,539.67
2023-05-25T23:21:19.104Z,542.30
2023-05-25T23:23:55.343Z,539.22
2023-05-25T23:26:21.568Z,538.75
2023-05-25T23:28:50.253Z,526.92
2023-05-25T23:31:22.668Z,524.38
2023-05-25T23:33:49.251Z,521.60
2023-05-25T23:36:15.821Z,506.77
2023-05-25T23:38:42.218Z,505.13
2023-05-25T23:41:12.834Z,496.13
2023-05-25T23:43:39.534Z,491.65
2023-05-25T23:46:10.608Z,487.77
2023-05-25T23:48:37.349Z,487.10
2023-05-25T23:51:09.287Z,473.13
2023-05-25T23:53:35.590Z,464.80
2023-05-25T23:56:03.059Z,476.00
2023-05-25T23:58:34.880Z,458.20
